sensor_id;sensor_type;location;lat;lon;timestamp;pressure;altitude;pressure_sealevel;temperature;humidity
11643;BME280;5877;50.930;6.918;2023-04-16T00:02:49;101157.31;;;8.59;73.58
11643;BME280;5877;50.930;6.918;2023-04-16T00:07:41;101102.34;;;8.23;73.92
11643;BME280;5877;50.930;6.918;2023-04-16T00:12:34;101154.56;;;8.67;74.03
11643;BME280;5877;50.930;6.918;2023-04-16T00:17:27;101107.88;;;8.49;73.32
11643;BME280;5877;50.930;6.918;2023-04-16T00:22:18;101259.53;;;9.29;73.89
11643;BME280;5877;50.930;6.918;2023-04-16T00:27:11;101092.75;;;8.44;73.49
11643;BME280;5877;50.930;6.918;2023-04-16T00:32:03;100972.38;;;7.59;73.02
11643;BME280;5877;50.930;6.918;2023-04-16T00:36:54;101329.69;;;9.76;73.41
11643;BME280;5877;50.930;6.918;2023-04-16T00:41:47;101152.63;;;8.54;73.29
11643;BME280;5877;50.930;6.918;2023-04-16T00:46:39;101255.47;;;9.27;73.75
11643;BME280;5877;50.930;6.918;2023-04-16T00:51:34;101029.91;;;8.02;73.25
11643;BME280;5877;50.930;6.918;2023-04-16T00:56:27;101258.72;;;9.29;74.00
11643;BME280;5877;50.930;6.918;2023-04-16T01:01:20;101352.78;;;9.88;73.81
11643;BME280;5877;50.930;6.918;2023-04-16T01:06:13;101045.81;;;7.86;73.76
11643;BME280;5877;50.930;6.918;2023-04-16T01:11:05;100939.88;;;7.32;73.18
11643;BME280;5877;50.930;6.918;2023-04-16T01:15:57;100984.78;;;7.72;73.46
11643;BME280;5877;50.930;6.918;2023-04-16T01:20:49;101167.47;;;8.68;73.96
11643;BME280;5877;50.930;6.918;2023-04-16T01:25:41;101276.72;;;9.17;74.03
11643;BME280;5877;50.930;6.918;2023-04-16T01:30:34;101064.47;;;7.82;74.85
11643;BME280;5877;50.930;6.918;2023-04-16T01:35:36;101012.72;;;7.42;75.06
11643;BME280;5877;50.930;6.918;2023-04-16T01:40:28;101207.72;;;8.67;75.27
11643;BME280;5877;50.930;6.918;2023-04-16T01:45:20;101124.06;;;8.38;74.51
11643;BME280;5877;50.930;6.918;2023-04-16T01:50:12;101135.59;;;8.43;74.44
11643;BME280;5877;50.930;6.918;2023-04-16T01:55:05;100995.31;;;7.64;74.56
11643;BME280;5877;50.930;6.918;2023-04-16T01:59:57;101283.97;;;9.15;75.55
11643;BME280;5877;50.930;6.918;2023-04-16T02:04:49;101165.81;;;8.46;75.64
11643;BME280;5877;50.930;6.918;2023-04-16T02:09:41;101177.69;;;8.85;75.51
11643;BME280;5877;50.930;6.918;2023-04-16T02:14:33;101144.41;;;8.57;74.76
11643;BME280;5877;50.930;6.918;2023-04-16T02:19:25;101325.28;;;9.77;74.45
11643;BME280;5877;50.930;6.918;2023-04-16T02:24:18;101266.88;;;9.40;74.49
11643;BME280;5877;50.930;6.918;2023-04-16T02:29:10;101259.53;;;9.29;74.72
11643;BME280;5877;50.930;6.918;2023-04-16T02:34:07;101013.31;;;7.73;74.36
11643;BME280;5877;50.930;6.918;2023-04-16T02:38:59;101161.34;;;8.61;74.42
11643;BME280;5877;50.930;6.918;2023-04-16T02:43:50;101033.72;;;7.85;74.27
11643;BME280;5877;50.930;6.918;2023-04-16T02:48:42;100956.03;;;7.21;74.08
11643;BME280;5877;50.930;6.918;2023-04-16T02:53:34;101424.41;;;10.09;74.37
11643;BME280;5877;50.930;6.918;2023-04-16T02:58:26;101245.09;;;9.19;74.07
11643;BME280;5877;50.930;6.918;2023-04-16T03:03:30;101405.81;;;10.26;73.61
11643;BME280;5877;50.930;6.918;2023-04-16T03:08:24;101059.38;;;8.10;73.71
11643;BME280;5877;50.930;6.918;2023-04-16T03:13:16;101094.50;;;8.23;73.67
11643;BME280;5877;50.930;6.918;2023-04-16T03:18:08;101153.13;;;8.64;73.71
11643;BME280;5877;50.930;6.918;2023-04-16T03:23:00;101379.00;;;10.09;74.03
11643;BME280;5877;50.930;6.918;2023-04-16T03:27:52;101162.38;;;8.45;74.09
11643;BME280;5877;50.930;6.918;2023-04-16T03:32:44;101325.03;;;9.51;74.25
11643;BME280;5877;50.930;6.918;2023-04-16T03:37:36;101287.16;;;9.32;74.25
11643;BME280;5877;50.930;6.918;2023-04-16T03:42:28;101004.34;;;7.46;74.97
11643;BME280;5877;50.930;6.918;2023-04-16T03:47:21;101287.72;;;9.27;74.60
11643;BME280;5877;50.930;6.918;2023-04-16T03:52:17;101112.81;;;8.08;75.13
11643;BME280;5877;50.930;6.918;2023-04-16T03:57:09;101079.09;;;7.77;75.22
11643;BME280;5877;50.930;6.918;2023-04-16T04:02:04;101117.25;;;8.07;75.61
11643;BME280;5877;50.930;6.918;2023-04-16T04:06:56;101182.75;;;8.50;76.17
11643;BME280;5877;50.930;6.918;2023-04-16T04:11:49;101434.00;;;10.02;76.18
11643;BME280;5877;50.930;6.918;2023-04-16T04:16:42;101151.41;;;8.06;76.60
11643;BME280;5877;50.930;6.918;2023-04-16T04:21:35;101206.38;;;8.57;77.13
11643;BME280;5877;50.930;6.918;2023-04-16T04:26:28;101317.66;;;9.03;76.95
11643;BME280;5877;50.930;6.918;2023-04-16T04:31:21;101233.78;;;8.75;76.77
11643;BME280;5877;50.930;6.918;2023-04-16T04:36:13;101208.34;;;8.69;76.73
11643;BME280;5877;50.930;6.918;2023-04-16T04:41:06;101318.41;;;9.33;76.74
11643;BME280;5877;50.930;6.918;2023-04-16T04:46:00;101059.81;;;7.78;76.60
11643;BME280;5877;50.930;6.918;2023-04-16T04:50:53;101341.13;;;9.48;76.39
11643;BME280;5877;50.930;6.918;2023-04-16T04:55:46;101347.16;;;9.48;76.37
11643;BME280;5877;50.930;6.918;2023-04-16T05:00:44;101061.03;;;7.82;76.17
11643;BME280;5877;50.930;6.918;2023-04-16T05:05:38;101381.69;;;9.73;76.42
11643;BME280;5877;50.930;6.918;2023-04-16T05:10:30;101213.56;;;8.69;76.05
11643;BME280;5877;50.930;6.918;2023-04-16T05:15:22;101309.91;;;9.31;76.19
11643;BME280;5877;50.930;6.918;2023-04-16T05:20:13;101340.81;;;9.57;75.77
11643;BME280;5877;50.930;6.918;2023-04-16T05:25:06;101281.34;;;9.15;75.85
11643;BME280;5877;50.930;6.918;2023-04-16T05:29:58;101220.09;;;8.95;75.46
11643;BME280;5877;50.930;6.918;2023-04-16T05:34:51;101194.28;;;8.92;74.93
11643;BME280;5877;50.930;6.918;2023-04-16T05:39:44;101420.22;;;10.36;74.92
11643;BME280;5877;50.930;6.918;2023-04-16T05:44:36;101400.72;;;10.03;75.49
11643;BME280;5877;50.930;6.918;2023-04-16T05:49:28;101246.41;;;9.08;76.11
11643;BME280;5877;50.930;6.918;2023-04-16T05:54:20;101393.00;;;9.95;75.74
11643;BME280;5877;50.930;6.918;2023-04-16T05:59:12;101295.69;;;9.19;76.22
11643;BME280;5877;50.930;6.918;2023-04-16T06:04:05;101301.41;;;9.08;76.87
11643;BME280;5877;50.930;6.918;2023-04-16T06:08:57;101369.72;;;9.64;77.10
11643;BME280;5877;50.930;6.918;2023-04-16T06:13:50;101217.47;;;8.59;77.49
11643;BME280;5877;50.930;6.918;2023-04-16T06:18:43;101231.03;;;8.84;76.87
11643;BME280;5877;50.930;6.918;2023-04-16T06:23:34;101343.84;;;9.39;76.85
11643;BME280;5877;50.930;6.918;2023-04-16T06:28:26;101297.06;;;9.15;77.31
11643;BME280;5877;50.930;6.918;2023-04-16T06:33:19;101308.53;;;9.14;77.55
11643;BME280;5877;50.930;6.918;2023-04-16T06:38:11;101419.66;;;9.77;77.53
11643;BME280;5877;50.930;6.918;2023-04-16T06:43:03;101340.59;;;9.37;77.69
11643;BME280;5877;50.930;6.918;2023-04-16T06:47:56;101566.41;;;10.64;77.54
11643;BME280;5877;50.930;6.918;2023-04-16T06:52:49;101084.41;;;7.69;77.58
11643;BME280;5877;50.930;6.918;2023-04-16T06:57:42;101379.44;;;9.49;77.58
11643;BME280;5877;50.930;6.918;2023-04-16T07:02:34;101410.72;;;9.71;77.80
11643;BME280;5877;50.930;6.918;2023-04-16T07:07:26;101364.84;;;9.25;77.70
11643;BME280;5877;50.930;6.918;2023-04-16T07:12:18;101210.91;;;8.48;77.62
11643;BME280;5877;50.930;6.918;2023-04-16T07:17:13;101345.78;;;9.31;77.57
11643;BME280;5877;50.930;6.918;2023-04-16T07:22:05;101077.22;;;7.71;77.44
11643;BME280;5877;50.930;6.918;2023-04-16T07:26:57;101258.16;;;8.76;77.33
11643;BME280;5877;50.930;6.918;2023-04-16T07:31:49;101328.09;;;9.18;77.31
11643;BME280;5877;50.930;6.918;2023-04-16T07:36:41;101398.22;;;9.73;77.66
11643;BME280;5877;50.930;6.918;2023-04-16T07:41:33;101366.63;;;9.39;77.67
11643;BME280;5877;50.930;6.918;2023-04-16T07:46:24;101595.38;;;10.98;77.63
11643;BME280;5877;50.930;6.918;2023-04-16T07:51:26;101297.94;;;9.43;76.46
11643;BME280;5877;50.930;6.918;2023-04-16T07:56:18;101243.59;;;9.09;75.97
11643;BME280;5877;50.930;6.918;2023-04-16T08:01:10;101307.97;;;9.83;75.69
11643;BME280;5877;50.930;6.918;2023-04-16T08:06:02;101446.69;;;10.69;74.79
11643;BME280;5877;50.930;6.918;2023-04-16T08:10:54;101319.34;;;10.18;72.99
11643;BME280;5877;50.930;6.918;2023-04-16T08:15:47;101158.44;;;10.04;71.26
11643;BME280;5877;50.930;6.918;2023-04-16T08:20:39;101413.28;;;12.26;68.40
11643;BME280;5877;50.930;6.918;2023-04-16T08:25:31;101408.22;;;12.18;67.09
11643;BME280;5877;50.930;6.918;2023-04-16T08:30:23;101617.69;;;13.20;66.95
11643;BME280;5877;50.930;6.918;2023-04-16T08:35:16;101503.78;;;12.39;66.21
11643;BME280;5877;50.930;6.918;2023-04-16T08:40:08;101365.09;;;12.13;64.89
11643;BME280;5877;50.930;6.918;2023-04-16T08:45:09;101341.63;;;11.98;64.15
11643;BME280;5877;50.930;6.918;2023-04-16T08:50:04;101467.94;;;12.18;65.01
11643;BME280;5877;50.930;6.918;2023-04-16T08:55:05;101627.41;;;13.06;65.23
11643;BME280;5877;50.930;6.918;2023-04-16T08:59:59;101419.91;;;11.22;65.40
11643;BME280;5877;50.930;6.918;2023-04-16T09:04:52;101506.00;;;12.35;64.54
11643;BME280;5877;50.930;6.918;2023-04-16T09:09:47;101561.00;;;13.62;61.50
11643;BME280;5877;50.930;6.918;2023-04-16T09:14:40;101463.91;;;13.39;59.37
11643;BME280;5877;50.930;6.918;2023-04-16T09:19:33;101400.06;;;12.73;58.49
11643;BME280;5877;50.930;6.918;2023-04-16T09:24:25;101464.78;;;13.20;59.56
11643;BME280;5877;50.930;6.918;2023-04-16T09:29:35;101639.94;;;14.28;59.60
11643;BME280;5877;50.930;6.918;2023-04-16T09:34:27;101336.53;;;12.36;60.05
11643;BME280;5877;50.930;6.918;2023-04-16T09:39:18;101321.75;;;12.35;59.87
11643;BME280;5877;50.930;6.918;2023-04-16T09:44:11;101507.94;;;13.32;60.44
11643;BME280;5877;50.930;6.918;2023-04-16T09:49:12;101592.81;;;14.25;59.67
11643;BME280;5877;50.930;6.918;2023-04-16T09:54:05;101350.03;;;12.66;59.64
11643;BME280;5877;50.930;6.918;2023-04-16T09:59:01;101361.78;;;12.57;59.38
11643;BME280;5877;50.930;6.918;2023-04-16T10:03:54;101321.78;;;12.02;59.39
11643;BME280;5877;50.930;6.918;2023-04-16T10:08:51;101404.25;;;12.93;57.98
11643;BME280;5877;50.930;6.918;2023-04-16T10:13:44;101529.47;;;14.18;57.37
11643;BME280;5877;50.930;6.918;2023-04-16T10:18:40;101611.72;;;14.60;56.75
11643;BME280;5877;50.930;6.918;2023-04-16T10:23:32;101465.81;;;14.02;55.30
11643;BME280;5877;50.930;6.918;2023-04-16T10:28:24;101576.00;;;14.19;55.99
11643;BME280;5877;50.930;6.918;2023-04-16T10:33:26;101466.44;;;13.65;56.06
11643;BME280;5877;50.930;6.918;2023-04-16T10:38:26;101435.53;;;13.35;56.09
11643;BME280;5877;50.930;6.918;2023-04-16T10:43:18;101535.38;;;13.76;56.56
11643;BME280;5877;50.930;6.918;2023-04-16T10:48:11;101420.09;;;12.87;56.61
11643;BME280;5877;50.930;6.918;2023-04-16T10:53:19;101665.91;;;14.76;56.84
11643;BME280;5877;50.930;6.918;2023-04-16T10:58:34;101214.38;;;12.44;54.90
11643;BME280;5877;50.930;6.918;2023-04-16T11:03:32;101417.88;;;14.05;53.89
11643;BME280;5877;50.930;6.918;2023-04-16T11:08:24;101477.50;;;15.12;52.44
11643;BME280;5877;50.930;6.918;2023-04-16T11:13:17;101572.31;;;16.30;51.10
11643;BME280;5877;50.930;6.918;2023-04-16T11:18:10;101667.25;;;16.63;50.42
11643;BME280;5877;50.930;6.918;2023-04-16T11:23:02;101536.56;;;15.42;52.32
11643;BME280;5877;50.930;6.918;2023-04-16T11:27:54;101474.13;;;15.23;51.91
11643;BME280;5877;50.930;6.918;2023-04-16T11:32:47;101457.03;;;15.55;50.21
11643;BME280;5877;50.930;6.918;2023-04-16T11:37:39;101555.28;;;16.79;48.76
11643;BME280;5877;50.930;6.918;2023-04-16T11:42:41;101574.44;;;16.39;49.95
11643;BME280;5877;50.930;6.918;2023-04-16T11:52:37;101431.97;;;15.10;49.75
11643;BME280;5877;50.930;6.918;2023-04-16T11:57:30;101431.78;;;15.71;48.99
11643;BME280;5877;50.930;6.918;2023-04-16T12:02:43;101654.00;;;16.93;48.69
11643;BME280;5877;50.930;6.918;2023-04-16T12:07:44;101268.78;;;14.50;48.92
11643;BME280;5877;50.930;6.918;2023-04-16T12:12:36;101534.50;;;15.63;50.01
11643;BME280;5877;50.930;6.918;2023-04-16T12:17:32;101622.75;;;16.23;50.44
11643;BME280;5877;50.930;6.918;2023-04-16T12:22:32;101447.72;;;15.53;49.28
11643;BME280;5877;50.930;6.918;2023-04-16T12:32:33;101390.56;;;15.64;47.83
11643;BME280;5877;50.930;6.918;2023-04-16T12:37:25;101506.63;;;16.73;46.80
11643;BME280;5877;50.930;6.918;2023-04-16T12:42:17;101361.63;;;15.92;46.60
11643;BME280;5877;50.930;6.918;2023-04-16T12:47:09;101554.03;;;17.05;46.32
11643;BME280;5877;50.930;6.918;2023-04-16T12:52:03;101623.69;;;17.47;46.22
11643;BME280;5877;50.930;6.918;2023-04-16T12:56:55;101378.34;;;16.51;45.11
11643;BME280;5877;50.930;6.918;2023-04-16T13:01:48;101679.53;;;18.84;43.98
11643;BME280;5877;50.930;6.918;2023-04-16T13:06:40;101450.84;;;17.32;43.96
11643;BME280;5877;50.930;6.918;2023-04-16T13:11:32;101571.59;;;17.58;44.52
11643;BME280;5877;50.930;6.918;2023-04-16T13:16:23;101390.84;;;15.85;45.73
11643;BME280;5877;50.930;6.918;2023-04-16T13:21:16;101677.56;;;17.24;46.18
11643;BME280;5877;50.930;6.918;2023-04-16T13:26:08;101476.59;;;15.84;46.73
11643;BME280;5877;50.930;6.918;2023-04-16T13:31:01;101513.97;;;16.06;46.27
11643;BME280;5877;50.930;6.918;2023-04-16T13:35:56;101502.25;;;16.14;46.20
11643;BME280;5877;50.930;6.918;2023-04-16T13:40:48;101578.56;;;16.35;46.13
11643;BME280;5877;50.930;6.918;2023-04-16T13:45:40;101605.88;;;16.77;45.25
11643;BME280;5877;50.930;6.918;2023-04-16T13:50:33;101140.34;;;13.83;45.34
11643;BME280;5877;50.930;6.918;2023-04-16T13:55:26;101544.00;;;16.00;45.57
11643;BME280;5877;50.930;6.918;2023-04-16T14:00:18;101666.31;;;16.57;45.22
11643;BME280;5877;50.930;6.918;2023-04-16T14:05:11;101491.75;;;15.47;45.80
11643;BME280;5877;50.930;6.918;2023-04-16T14:10:03;101424.69;;;15.05;45.66
11643;BME280;5877;50.930;6.918;2023-04-16T14:14:55;101382.72;;;15.27;45.42
11643;BME280;5877;50.930;6.918;2023-04-16T14:19:47;101380.91;;;15.09;45.43
11643;BME280;5877;50.930;6.918;2023-04-16T14:24:38;101366.91;;;14.90;45.10
11643;BME280;5877;50.930;6.918;2023-04-16T14:29:31;101460.75;;;15.66;44.79
11643;BME280;5877;50.930;6.918;2023-04-16T14:34:23;101581.31;;;16.29;44.87
11643;BME280;5877;50.930;6.918;2023-04-16T14:39:15;101427.91;;;15.07;45.25
11643;BME280;5877;50.930;6.918;2023-04-16T14:44:07;101679.28;;;16.65;45.87
11643;BME280;5877;50.930;6.918;2023-04-16T14:48:59;101538.72;;;16.42;44.87
11643;BME280;5877;50.930;6.918;2023-04-16T14:53:52;101567.63;;;16.85;44.09
11643;BME280;5877;50.930;6.918;2023-04-16T14:58:44;101457.72;;;16.34;43.72
11643;BME280;5877;50.930;6.918;2023-04-16T15:03:35;101536.25;;;17.05;43.47
11643;BME280;5877;50.930;6.918;2023-04-16T15:08:28;101486.66;;;16.47;44.07
11643;BME280;5877;50.930;6.918;2023-04-16T15:13:20;101621.13;;;17.52;43.76
11643;BME280;5877;50.930;6.918;2023-04-16T15:18:12;101488.97;;;17.02;43.26
11643;BME280;5877;50.930;6.918;2023-04-16T15:23:04;101384.69;;;16.73;42.69
11643;BME280;5877;50.930;6.918;2023-04-16T15:27:56;101437.50;;;17.27;42.55
11643;BME280;5877;50.930;6.918;2023-04-16T15:32:48;101432.59;;;16.60;43.57
11643;BME280;5877;50.930;6.918;2023-04-16T15:37:40;101488.38;;;16.53;43.41
11643;BME280;5877;50.930;6.918;2023-04-16T15:42:32;101460.44;;;15.74;43.74
11643;BME280;5877;50.930;6.918;2023-04-16T15:47:27;101432.28;;;15.50;44.34
11643;BME280;5877;50.930;6.918;2023-04-16T15:52:19;101407.56;;;15.56;44.38
11643;BME280;5877;50.930;6.918;2023-04-16T15:57:11;101473.00;;;16.09;44.87
11643;BME280;5877;50.930;6.918;2023-04-16T16:02:03;101340.63;;;15.25;44.31
11643;BME280;5877;50.930;6.918;2023-04-16T16:06:55;101305.75;;;14.87;44.55
11643;BME280;5877;50.930;6.918;2023-04-16T16:11:47;101413.38;;;15.16;44.99
11643;BME280;5877;50.930;6.918;2023-04-16T16:16:39;101582.78;;;15.95;45.73
11643;BME280;5877;50.930;6.918;2023-04-16T16:21:31;101523.25;;;15.49;45.53
11643;BME280;5877;50.930;6.918;2023-04-16T16:26:23;101482.97;;;15.65;44.73
11643;BME280;5877;50.930;6.918;2023-04-16T16:31:15;101420.97;;;15.43;44.66
11643;BME280;5877;50.930;6.918;2023-04-16T16:36:11;101405.50;;;15.28;45.04
11643;BME280;5877;50.930;6.918;2023-04-16T16:41:02;101450.34;;;15.53;45.06
11643;BME280;5877;50.930;6.918;2023-04-16T16:45:54;101147.97;;;13.29;45.84
11643;BME280;5877;50.930;6.918;2023-04-16T16:50:46;101645.50;;;16.12;46.57
11643;BME280;5877;50.930;6.918;2023-04-16T16:55:38;101664.19;;;15.99;47.34
11643;BME280;5877;50.930;6.918;2023-04-16T17:00:30;101400.53;;;14.40;47.39
11643;BME280;5877;50.930;6.918;2023-04-16T17:05:23;101677.72;;;15.91;47.84
11643;BME280;5877;50.930;6.918;2023-04-16T17:10:15;101666.72;;;15.57;48.72
11643;BME280;5877;50.930;6.918;2023-04-16T17:15:11;101423.03;;;13.93;48.94
11643;BME280;5877;50.930;6.918;2023-04-16T17:20:03;101562.59;;;14.52;53.01
11643;BME280;5877;50.930;6.918;2023-04-16T17:24:59;101361.16;;;13.19;55.20
11643;BME280;5877;50.930;6.918;2023-04-16T17:29:52;101669.16;;;14.78;58.07
11643;BME280;5877;50.930;6.918;2023-04-16T17:34:53;101539.53;;;13.52;60.60
11643;BME280;5877;50.930;6.918;2023-04-16T17:39:45;101567.38;;;13.28;62.23
11643;BME280;5877;50.930;6.918;2023-04-16T17:44:37;101230.88;;;11.07;62.39
11643;BME280;5877;50.930;6.918;2023-04-16T17:49:29;101423.38;;;12.16;63.38
11643;BME280;5877;50.930;6.918;2023-04-16T17:54:23;101698.19;;;13.69;63.69
11643;BME280;5877;50.930;6.918;2023-04-16T17:59:15;101662.50;;;13.40;63.99
11643;BME280;5877;50.930;6.918;2023-04-16T18:04:07;101454.72;;;11.85;64.63
11643;BME280;5877;50.930;6.918;2023-04-16T18:09:00;101363.28;;;11.19;64.56
11643;BME280;5877;50.930;6.918;2023-04-16T18:13:52;101569.03;;;12.50;65.17
11643;BME280;5877;50.930;6.918;2023-04-16T18:18:44;101499.47;;;11.98;65.74
11643;BME280;5877;50.930;6.918;2023-04-16T18:23:36;101394.81;;;11.19;66.22
11643;BME280;5877;50.930;6.918;2023-04-16T18:28:28;101585.00;;;12.35;66.46
11643;BME280;5877;50.930;6.918;2023-04-16T18:33:20;101669.53;;;12.66;67.52
11643;BME280;5877;50.930;6.918;2023-04-16T18:38:32;101654.66;;;12.39;68.19
11643;BME280;5877;50.930;6.918;2023-04-16T18:43:25;101466.44;;;11.34;67.58
11643;BME280;5877;50.930;6.918;2023-04-16T18:48:16;101188.63;;;9.59;67.63
11643;BME280;5877;50.930;6.918;2023-04-16T18:53:08;101679.84;;;12.61;68.58
11643;BME280;5877;50.930;6.918;2023-04-16T18:58:00;101607.56;;;12.03;68.74
11643;BME280;5877;50.930;6.918;2023-04-16T19:02:52;101604.59;;;12.19;69.23
11643;BME280;5877;50.930;6.918;2023-04-16T19:07:44;101389.91;;;10.68;70.01
11643;BME280;5877;50.930;6.918;2023-04-16T19:12:36;101623.75;;;12.00;70.99
11643;BME280;5877;50.930;6.918;2023-04-16T19:17:28;101547.38;;;11.46;70.72
11643;BME280;5877;50.930;6.918;2023-04-16T19:22:20;101520.25;;;11.38;69.84
11643;BME280;5877;50.930;6.918;2023-04-16T19:27:12;101522.22;;;11.30;70.14
11643;BME280;5877;50.930;6.918;2023-04-16T19:32:04;101205.81;;;9.40;69.92
11643;BME280;5877;50.930;6.918;2023-04-16T19:36:56;101548.53;;;11.36;70.71
11643;BME280;5877;50.930;6.918;2023-04-16T19:41:48;101361.06;;;10.13;70.84
11643;BME280;5877;50.930;6.918;2023-04-16T19:46:40;101734.16;;;12.62;70.35
11643;BME280;5877;50.930;6.918;2023-04-16T19:51:32;101462.91;;;10.80;70.12
11643;BME280;5877;50.930;6.918;2023-04-16T19:56:27;101686.00;;;12.21;69.72
11643;BME280;5877;50.930;6.918;2023-04-16T20:01:22;101709.31;;;12.30;69.99
11643;BME280;5877;50.930;6.918;2023-04-16T20:06:15;101708.94;;;12.33;69.97
11643;BME280;5877;50.930;6.918;2023-04-16T20:11:09;101666.84;;;11.99;70.17
11643;BME280;5877;50.930;6.918;2023-04-16T20:16:02;101581.13;;;11.42;69.96
11643;BME280;5877;50.930;6.918;2023-04-16T20:20:54;101603.66;;;11.58;69.86
11643;BME280;5877;50.930;6.918;2023-04-16T20:25:46;101455.84;;;10.52;69.60
11643;BME280;5877;50.930;6.918;2023-04-16T20:30:39;101797.19;;;12.64;70.15
11643;BME280;5877;50.930;6.918;2023-04-16T20:35:32;101385.88;;;10.10;69.53
11643;BME280;5877;50.930;6.918;2023-04-16T20:40:24;101573.88;;;11.16;70.17
11643;BME280;5877;50.930;6.918;2023-04-16T20:45:21;101643.88;;;11.80;69.82
11643;BME280;5877;50.930;6.918;2023-04-16T20:50:15;101549.66;;;10.93;69.64
11643;BME280;5877;50.930;6.918;2023-04-16T20:55:07;101526.06;;;10.71;69.60
11643;BME280;5877;50.930;6.918;2023-04-16T20:59:59;101762.59;;;12.32;69.46
11643;BME280;5877;50.930;6.918;2023-04-16T21:04:51;101803.19;;;12.51;69.55
11643;BME280;5877;50.930;6.918;2023-04-16T21:09:43;101660.09;;;11.55;70.05
11643;BME280;5877;50.930;6.918;2023-04-16T21:14:35;101287.34;;;9.30;69.09
11643;BME280;5877;50.930;6.918;2023-04-16T21:19:27;101659.56;;;11.66;68.86
11643;BME280;5877;50.930;6.918;2023-04-16T21:24:20;101511.25;;;10.64;69.08
11643;BME280;5877;50.930;6.918;2023-04-16T22:57:12;101767.47;;;12.01;71.57
11643;BME280;5877;50.930;6.918;2023-04-16T23:02:05;101496.13;;;10.38;71.38
11643;BME280;5877;50.930;6.918;2023-04-16T23:06:56;101560.31;;;10.85;70.95
11643;BME280;5877;50.930;6.918;2023-04-16T23:11:48;101643.50;;;11.27;71.21
11643;BME280;5877;50.930;6.918;2023-04-16T23:16:40;101657.06;;;11.30;71.55
11643;BME280;5877;50.930;6.918;2023-04-16T23:21:32;101726.25;;;11.80;71.25
11643;BME280;5877;50.930;6.918;2023-04-16T23:26:24;101513.53;;;10.46;70.99
11643;BME280;5877;50.930;6.918;2023-04-16T23:31:16;101803.63;;;12.20;71.36
11643;BME280;5877;50.930;6.918;2023-04-16T23:36:08;101447.25;;;9.94;71.39
11643;BME280;5877;50.930;6.918;2023-04-16T23:41:00;101498.75;;;10.38;71.18
11643;BME280;5877;50.930;6.918;2023-04-16T23:45:52;101340.88;;;9.42;71.49
11643;BME280;5877;50.930;6.918;2023-04-16T23:50:44;101495.88;;;10.33;71.27
11643;BME280;5877;50.930;6.918;2023-04-16T23:55:36;101612.19;;;11.04;71.90
